地図

経路データ

SID SEASON NUMBER BASIN SUBBASIN NAME ISO_TIME NATURE LAT LON WMO_WIND WMO_PRES WMO_AGENCY TRACK_TYPE DIST2LAND LANDFALL IFLAG USA_AGENCY USA_ATCF_ID USA_LAT USA_LON USA_RECORD USA_STATUS USA_WIND USA_PRES USA_SSHS USA_R34_NE USA_R34_SE USA_R34_SW USA_R34_NW USA_R50_NE USA_R50_SE USA_R50_SW USA_R50_NW USA_R64_NE USA_R64_SE USA_R64_SW USA_R64_NW USA_POCI USA_ROCI USA_RMW USA_EYE TOKYO_LAT TOKYO_LON TOKYO_GRADE TOKYO_WIND TOKYO_PRES TOKYO_R50_DIR TOKYO_R50_LONG TOKYO_R50_SHORT TOKYO_R30_DIR TOKYO_R30_LONG TOKYO_R30_SHORT TOKYO_LAND CMA_LAT CMA_LON CMA_CAT CMA_WIND CMA_PRES HKO_LAT HKO_LON HKO_CAT HKO_WIND HKO_PRES NEWDELHI_LAT NEWDELHI_LON NEWDELHI_GRADE NEWDELHI_WIND NEWDELHI_PRES NEWDELHI_CI NEWDELHI_DP NEWDELHI_POCI REUNION_LAT REUNION_LON REUNION_TYPE REUNION_WIND REUNION_PRES REUNION_TNUM REUNION_CI REUNION_RMW REUNION_R34_NE REUNION_R34_SE REUNION_R34_SW REUNION_R34_NW REUNION_R50_NE REUNION_R50_SE REUNION_R50_SW REUNION_R50_NW REUNION_R64_NE REUNION_R64_SE REUNION_R64_SW REUNION_R64_NW BOM_LAT BOM_LON BOM_TYPE BOM_WIND BOM_PRES BOM_TNUM BOM_CI BOM_RMW BOM_R34_NE BOM_R34_SE BOM_R34_SW BOM_R34_NW BOM_R50_NE BOM_R50_SE BOM_R50_SW BOM_R50_NW BOM_R64_NE BOM_R64_SE BOM_R64_SW BOM_R64_NW BOM_ROCI BOM_POCI BOM_EYE BOM_POS_METHOD BOM_PRES_METHOD NADI_LAT NADI_LON NADI_CAT NADI_WIND NADI_PRES WELLINGTON_LAT WELLINGTON_LON WELLINGTON_WIND WELLINGTON_PRES DS824_LAT DS824_LON DS824_STAGE DS824_WIND DS824_PRES TD9636_LAT TD9636_LON TD9636_STAGE TD9636_WIND TD9636_PRES TD9635_LAT TD9635_LON TD9635_WIND TD9635_PRES TD9635_ROCI NEUMANN_LAT NEUMANN_LON NEUMANN_CLASS NEUMANN_WIND NEUMANN_PRES MLC_LAT MLC_LON MLC_CLASS MLC_WIND MLC_PRES USA_GUST BOM_GUST BOM_GUST_PER REUNION_GUST REUNION_GUST_PER USA_SEAHGT USA_SEARAD_NE USA_SEARAD_SE USA_SEARAD_SW USA_SEARAD_NW STORM_SPEED STORM_DIR
1874011S14064 1874 1 SI MM NOT_NAMED 1874-01-11 06:00:00 NR -13.7000 63.9000 reunion main 973 973 _____O________ -1 -13.7000 63.9000 99 9.90000 1 0
1874011S14064 1874 1 SI MM NOT_NAMED 1874-01-11 09:00:00 NR -13.7175 63.8800 main 973 973 _____P________ -1 -13.7175 63.8800 99 1 214
1874011S14064 1874 1 SI MM NOT_NAMED 1874-01-11 12:00:00 NR -13.7465 63.8547 main 973 957 _____P________ -1 -13.7465 63.8547 99 1 214
1874011S14064 1874 1 SI MM NOT_NAMED 1874-01-11 15:00:00 NR -13.7983 63.8191 main 957 949 _____P________ -1 -13.7983 63.8191 99 2 212
1874011S14064 1874 1 SI MM NOT_NAMED 1874-01-11 18:00:00 NR -13.8844 63.7678 main 949 934 _____P________ -1 -13.8844 63.7678 99 3 208
1874011S14064 1874 1 SI MM NOT_NAMED 1874-01-11 21:00:00 NR -14.0162 63.6956 main 934 910 _____P________ -1 -14.0162 63.6956 99 4 207
1874011S14064 1874 1 SI MM NOT_NAMED 1874-01-12 00:00:00 NR -14.2051 63.5972 main 910 886 _____P________ -1 -14.2051 63.5972 99 5 206
1874011S14064 1874 1 SI MM NOT_NAMED 1874-01-12 03:00:00 NR -14.4625 63.4672 main 878 839 _____P________ -1 -14.4625 63.4672 99 7 206
1874011S14064 1874 1 SI MM NOT_NAMED 1874-01-12 06:00:00 NR -14.8000 63.3000 reunion main 839 792 _____O________ -1 -14.8000 63.3000 99 9.90000 8 205
1874011S14064 1874 1 SI MM NOT_NAMED 1874-01-12 09:00:00 NR -15.2239 63.0924 main 792 738 _____P________ -1 -15.2239 63.0924 99 10 205
1874011S14064 1874 1 SI MM NOT_NAMED 1874-01-12 12:00:00 NR -15.7208 62.8509 main 738 677 _____P________ -1 -15.7208 62.8509 99 12 205
1874011S14064 1874 1 SI MM NOT_NAMED 1874-01-12 15:00:00 NR -16.2722 62.5843 main 669 609 _____P________ -1 -16.2722 62.5843 99 13 205
1874011S14064 1874 1 SI MM NOT_NAMED 1874-01-12 18:00:00 NR -16.8596 62.3017 main 602 544 _____P________ -1 -16.8596 62.3017 99 13 205
1874011S14064 1874 1 SI MM NOT_NAMED 1874-01-12 21:00:00 NR -17.4645 62.0125 main 538 481 _____P________ -1 -17.4645 62.0125 99 13 204
1874011S14064 1874 1 SI MM NOT_NAMED 1874-01-13 00:00:00 NR -18.0683 61.7259 main 476 432 _____P________ -1 -18.0683 61.7259 99 13 204
1874011S14064 1874 1 SI MM NOT_NAMED 1874-01-13 03:00:00 NR -18.6529 61.4518 main 427 376 _____P________ -1 -18.6529 61.4518 99 12 204
1874011S14064 1874 1 SI MM NOT_NAMED 1874-01-13 06:00:00 NR -19.2000 61.2000 reunion main 376 343 _____O________ -1 -19.2000 61.2000 99 9.90000 11 204
1874011S14064 1874 1 SI MM NOT_NAMED 1874-01-13 09:00:00 NR -19.6299 61.0024 main 343 314 _____P________ -1 -19.6299 61.0024 99 9 203
1874011S14064 1874 1 SI MM NOT_NAMED 1874-01-13 12:00:00 NR -20.0292 60.8238 main 314 302 _____P________ -1 -20.0292 60.8238 99 8 202
1874011S14064 1874 1 SI MM NOT_NAMED 1874-01-13 15:00:00 NR -20.4055 60.6617 main 302 284 _____P________ -1 -20.4055 60.6617 99 8 202
1874011S14064 1874 1 SI MM NOT_NAMED 1874-01-13 18:00:00 NR -20.7661 60.5132 main 286 278 _____P________ -1 -20.7661 60.5132 99 8 201
1874011S14064 1874 1 SI MM NOT_NAMED 1874-01-13 21:00:00 NR -21.1185 60.3756 main 284 278 _____P________ -1 -21.1185 60.3756 99 8 200
1874011S14064 1874 1 SI MM NOT_NAMED 1874-01-14 00:00:00 NR -21.4701 60.2462 main 282 282 _____P________ -1 -21.4701 60.2462 99 8 199
1874011S14064 1874 1 SI MM NOT_NAMED 1874-01-14 03:00:00 NR -21.8281 60.1219 main 288 288 _____P________ -1 -21.8281 60.1219 99 8 197
1874011S14064 1874 1 SI MM NOT_NAMED 1874-01-14 06:00:00 NR -22.2000 60.0000 reunion main 304 303 _____O________ -1 -22.2000 60.0000 99 9.90000 8 198
1874011S14064 1874 1 SI MM NOT_NAMED 1874-01-14 09:00:00 NR -22.5762 59.8609 main 326 319 _____P________ -1 -22.5762 59.8609 99 8 198
1874011S14064 1874 1 SI MM NOT_NAMED 1874-01-14 12:00:00 NR -22.9583 59.7257 main 347 347 _____P________ -1 -22.9583 59.7257 99 8 198
1874011S14064 1874 1 SI MM NOT_NAMED 1874-01-14 15:00:00 NR -23.3521 59.5945 main 378 378 _____P________ -1 -23.3521 59.5945 99 8 196
1874011S14064 1874 1 SI MM NOT_NAMED 1874-01-14 18:00:00 NR -23.7633 59.4674 main 412 408 _____P________ -1 -23.7633 59.4674 99 9 195
1874011S14064 1874 1 SI MM NOT_NAMED 1874-01-14 21:00:00 NR -24.1979 59.3444 main 445 445 _____P________ -1 -24.1979 59.3444 99 9 194
1874011S14064 1874 1 SI MM NOT_NAMED 1874-01-15 00:00:00 NR -24.6616 59.2254 main 494 494 _____P________ -1 -24.6616 59.2254 99 10 193
1874011S14064 1874 1 SI MM NOT_NAMED 1874-01-15 03:00:00 NR -25.1603 59.1107 main 544 544 _____P________ -1 -25.1603 59.1107 99 11 191
1874011S14064 1874 1 SI MM NOT_NAMED 1874-01-15 06:00:00 NR -25.7000 59.0000 reunion main 590 590 _____O________ -1 -25.7000 59.0000 99 9.90000 12 191
1874011S14064 1874 1 SI MM NOT_NAMED 1874-01-15 09:00:00 NR -26.3156 58.8645 main 641 641 _____P________ -1 -26.3156 58.8645 99 13 191
1874011S14064 1874 1 SI MM NOT_NAMED 1874-01-15 12:00:00 NR -26.9761 58.7298 main 700 700 _____P________ -1 -26.9761 58.7298 99 14 190
1874011S14064 1874 1 SI MM NOT_NAMED 1874-01-15 15:00:00 NR -27.6693 58.6003 main 766 766 _____P________ -1 -27.6693 58.6003 99 14 189
1874011S14064 1874 1 SI MM NOT_NAMED 1874-01-15 18:00:00 NR -28.3831 58.4806 main 834 834 _____P________ -1 -28.3831 58.4806 99 15 188
1874011S14064 1874 1 SI MM NOT_NAMED 1874-01-15 21:00:00 NR -29.1052 58.3756 main 905 905 _____P________ -1 -29.1052 58.3756 99 15 187
1874011S14064 1874 1 SI MM NOT_NAMED 1874-01-16 00:00:00 NR -29.8234 58.2903 main 976 976 _____P________ -1 -29.8234 58.2903 99 14 185
1874011S14064 1874 1 SI MM NOT_NAMED 1874-01-16 03:00:00 NR -30.5257 58.2300 main 1049 1049 _____P________ -1 -30.5257 58.2300 99 14 183
1874011S14064 1874 1 SI MM NOT_NAMED 1874-01-16 06:00:00 NR -31.2000 58.2000 reunion main 1124 1124 _____O________ -1 -31.2000 58.2000 99 9.90000 13 181
1874011S14064 1874 1 SI MM NOT_NAMED 1874-01-16 09:00:00 NR -31.8655 58.2226 main 1200 1200 _____P________ -1 -31.8655 58.2226 99 13 177
1874011S14064 1874 1 SI MM NOT_NAMED 1874-01-16 12:00:00 NR -32.5160 58.2789 main 1267 1267 _____P________ -1 -32.5160 58.2789 99 13 175
1874011S14064 1874 1 SI MM NOT_NAMED 1874-01-16 15:00:00 NR -33.1427 58.3617 main 1335 1335 _____P________ -1 -33.1427 58.3617 99 12 173
1874011S14064 1874 1 SI MM NOT_NAMED 1874-01-16 18:00:00 NR -33.7363 58.4634 main 1402 1402 _____P________ -1 -33.7363 58.4634 99 12 171
1874011S14064 1874 1 SI MM NOT_NAMED 1874-01-16 21:00:00 NR -34.2880 58.5764 main 1469 1469 _____P________ -1 -34.2880 58.5764 99 11 170
1874011S14064 1874 1 SI MM NOT_NAMED 1874-01-17 00:00:00 NR -34.7885 58.6924 main 1526 1526 _____P________ -1 -34.7885 58.6924 99 10 169
1874011S14064 1874 1 SI MM NOT_NAMED 1874-01-17 03:00:00 NR -35.2289 58.8032 main 1571 1571 _____P________ -1 -35.2289 58.8032 99 8 168
1874011S14064 1874 1 SI MM NOT_NAMED 1874-01-17 06:00:00 NR -35.6000 58.9000 reunion main 1617 1617 _____O________ -1 -35.6000 58.9000 99 9.90000 7 168
1874011S14064 1874 1 SI MM NOT_NAMED 1874-01-17 09:00:00 NR -35.8960 58.9761 main 1644 1624 _____P________ -1 -35.8960 58.9761 99 5 169
1874011S14064 1874 1 SI MM NOT_NAMED 1874-01-17 12:00:00 NR -36.1235 59.0320 main 1624 1600 _____P________ -1 -36.1235 59.0320 99 4 169
1874011S14064 1874 1 SI MM NOT_NAMED 1874-01-17 15:00:00 NR -36.2925 59.0704 main 1600 1590 _____P________ -1 -36.2925 59.0704 99 3 170
1874011S14064 1874 1 SI MM NOT_NAMED 1874-01-17 18:00:00 NR -36.4125 59.0942 main 1590 1580 _____P________ -1 -36.4125 59.0942 99 2 168
1874011S14064 1874 1 SI MM NOT_NAMED 1874-01-17 21:00:00 NR -36.4936 59.1060 main 1580 1580 _____P________ -1 -36.4936 59.1060 99 1 0
1874011S14064 1874 1 SI MM NOT_NAMED 1874-01-18 00:00:00 NR -36.5453 59.1090 main 1580 1571 _____P________ -1 -36.5453 59.1090 99 1 198
1874011S14064 1874 1 SI MM NOT_NAMED 1874-01-18 03:00:00 NR -36.5775 59.1060 main 1571 1571 _____P________ -1 -36.5775 59.1060 99 1 192
1874011S14064 1874 1 SI MM NOT_NAMED 1874-01-18 06:00:00 NR -36.6000 59.1000 reunion main 1571 _____O________ -1 -36.6000 59.1000 99 9.90000 0 0

IBTrACS Databaseについて

本データベースは、米国NOAAが公開する1842年以降の世界の熱帯低気圧のベストトラックデータアーカイブInternational Best Track Archive for Climate Stewardship (IBTrACS)を、ウェブで閲覧しやすい形式に変換したものです。

最終更新日:2021-12-06